Time;durP1;ratioP1;P1;durP2;ratioP2;P2;SDS_P1;SDS_P2;PMS_P1;PMS_P2;Temp;Humidity;BMP_temperature;BMP_pressure;BME280_temperature;BME280_humidity;BME280_pressure;Samples;Min_cycle;Max_cycle;Signal;HPM_P1;HPM_P2
2022/05/26 00:01:38;;;;;;;0.32;0.32;;;14.30;90.60;;;;;;5028431;28;20049;-67
2022/05/26 00:04:05;;;;;;;0.00;0.00;;;14.30;90.60;;;;;;5029035;28;20140;-67
2022/05/26 00:06:31;;;;;;;0.00;0.00;;;14.30;90.60;;;;;;5029005;28;20387;-67
2022/05/26 00:08:57;;;;;;;0.85;0.85;;;14.20;90.70;;;;;;5028854;28;20064;-67
2022/05/26 00:11:26;;;;;;;2.40;0.90;;;14.10;90.90;;;;;;5027392;28;20041;-67
2022/05/26 00:13:53;;;;;;;0.38;0.38;;;14.10;91.00;;;;;;5028576;28;20049;-67
2022/05/26 00:16:18;;;;;;;0.00;0.00;;;14.10;91.00;;;;;;5029100;28;20091;-67
2022/05/26 00:18:44;;;;;;;0.80;0.80;;;14.10;91.00;;;;;;5028826;28;20042;-67
2022/05/26 00:21:10;;;;;;;0.10;0.10;;;14.10;91.00;;;;;;5028204;28;20041;-67
2022/05/26 00:23:36;;;;;;;0.90;0.90;;;14.00;91.10;;;;;;5028617;28;20077;-67
2022/05/26 00:26:02;;;;;;;1.23;0.35;;;14.00;91.20;;;;;;5028512;28;20068;-67
2022/05/26 00:28:28;;;;;;;0.30;0.30;;;14.00;91.20;;;;;;5028751;28;20134;-67
2022/05/26 00:30:53;;;;;;;0.00;0.00;;;14.00;91.00;;;;;;5028560;28;20487;-67
2022/05/26 00:33:19;;;;;;;0.00;0.00;;;14.00;91.00;;;;;;5028504;28;20489;-67
2022/05/26 00:35:45;;;;;;;6.25;1.95;;;14.00;91.10;;;;;;5028433;28;20501;-67
2022/05/26 00:38:13;;;;;;;0.00;0.00;;;13.90;91.00;;;;;;5028787;28;20132;-67
2022/05/26 00:40:41;;;;;;;0.00;0.00;;;13.90;91.00;;;;;;5028444;28;20060;-67
2022/05/26 00:43:07;;;;;;;11.80;3.58;;;14.00;91.00;;;;;;5032047;28;20030;-67
2022/05/26 00:45:51;;;;;;;0.00;0.00;;;14.00;91.10;;;;;;5032798;28;20112;-68
2022/05/26 00:48:21;;;;;;;0.00;0.00;;;14.00;91.10;;;;;;5032664;28;20494;-67
2022/05/26 00:51:06;;;;;;;0.00;0.00;;;14.00;91.10;;;;;;5032067;28;20481;-67
2022/05/26 00:53:52;;;;;;;0.10;0.10;;;14.00;91.20;;;;;;5032157;28;20049;-68
2022/05/26 00:56:24;;;;;;;0.00;0.00;;;14.00;91.10;;;;;;5032887;28;20498;-68
2022/05/26 00:58:59;;;;;;;15.57;2.17;;;14.00;91.30;;;;;;5032559;28;20478;-68
2022/05/26 01:01:26;;;;;;;0.00;0.00;;;14.00;91.20;;;;;;5032002;28;20080;-68
2022/05/26 01:03:58;;;;;;;0.00;0.00;;;14.10;91.20;;;;;;5031912;28;20103;-68
2022/05/26 01:06:58;;;;;;;1.55;1.45;;;14.00;91.20;;;;;;5032587;28;20041;-68
2022/05/26 01:09:24;;;;;;;0.30;0.30;;;14.00;91.20;;;;;;5030503;28;20084;-67
2022/05/26 01:11:50;;;;;;;0.10;0.10;;;14.10;91.30;;;;;;5031939;28;20456;-67
2022/05/26 01:14:29;;;;;;;0.00;0.00;;;14.00;91.20;;;;;;5031951;28;20053;-68
2022/05/26 01:17:19;;;;;;;1.08;1.02;;;14.10;91.30;;;;;;5032134;28;20057;-67
2022/05/26 01:20:03;;;;;;;0.00;0.00;;;14.00;91.30;;;;;;5031491;28;20045;-68
2022/05/26 01:22:43;;;;;;;0.00;0.00;;;14.00;91.30;;;;;;5031529;28;20107;-68
2022/05/26 01:25:32;;;;;;;0.00;0.00;;;14.10;91.20;;;;;;5031639;28;20502;-68
2022/05/26 01:28:13;;;;;;;0.10;0.10;;;14.00;91.20;;;;;;5032331;28;20578;-68
2022/05/26 01:30:39;;;;;;;0.00;0.00;;;14.00;91.10;;;;;;5012321;28;20081;-67
2022/05/26 01:33:11;;;;;;;0.00;0.00;;;14.00;91.10;;;;;;5027866;28;20146;-68
2022/05/26 01:35:45;;;;;;;0.00;0.00;;;14.00;91.00;;;;;;5032132;28;20096;-67
2022/05/26 01:38:43;;;;;;;0.00;0.00;;;14.10;90.90;;;;;;5031622;28;20045;-68
2022/05/26 01:41:51;;;;;;;0.40;0.40;;;14.00;90.70;;;;;;5012222;28;20107;-67
2022/05/26 01:44:30;;;;;;;2.90;1.95;;;14.00;90.60;;;;;;5010858;28;20525;-67
2022/05/26 01:47:04;;;;;;;0.00;0.00;;;14.00;90.50;;;;;;5031744;28;20045;-67
2022/05/26 01:50:00;;;;;;;4.57;0.43;;;14.00;90.40;;;;;;5030954;28;20041;-67
2022/05/26 01:52:35;;;;;;;0.38;0.38;;;14.00;90.20;;;;;;5031451;28;20053;-67
2022/05/26 01:55:29;;;;;;;0.10;0.10;;;14.00;90.00;;;;;;5031007;28;20406;-68
2022/05/26 01:58:04;;;;;;;0.00;0.00;;;14.00;89.70;;;;;;5031101;28;20398;-67
2022/05/26 02:00:30;;;;;;;0.30;0.30;;;14.00;89.20;;;;;;5015665;28;20033;-67
2022/05/26 02:03:01;;;;;;;2.40;1.17;;;14.00;88.40;;;;;;5030846;28;20051;-67
2022/05/26 02:05:31;;;;;;;0.00;0.00;;;14.00;87.80;;;;;;5031431;28;20045;-67
2022/05/26 02:08:24;;;;;;;0.00;0.00;;;14.00;87.30;;;;;;5031141;28;20395;-67
2022/05/26 02:10:58;;;;;;;0.22;0.22;;;14.00;87.00;;;;;;5011238;28;20161;-67
2022/05/26 02:13:37;;;;;;;0.00;0.00;;;14.00;86.00;;;;;;5028667;28;20057;-67
2022/05/26 02:16:13;;;;;;;0.05;0.05;;;13.90;86.00;;;;;;5030826;28;20077;-67
2022/05/26 02:18:46;;;;;;;0.00;0.00;;;13.90;85.30;;;;;;5030704;28;20033;-67
2022/05/26 02:21:20;;;;;;;0.00;0.00;;;13.90;85.40;;;;;;5031183;28;20053;-67
2022/05/26 02:24:00;;;;;;;0.20;0.20;;;13.90;84.90;;;;;;5031045;28;20044;-67
2022/05/26 02:26:26;;;;;;;0.00;0.00;;;13.90;84.70;;;;;;5030829;28;20052;-67
2022/05/26 02:31:56;;;;;;;0.10;0.10;;;13.80;84.20;;;;;;5027750;28;20080;-67
2022/05/26 02:34:23;;;;;;;0.00;0.00;;;13.80;84.40;;;;;;5027923;28;20049;-67
2022/05/26 02:36:53;;;;;;;0.00;0.00;;;13.80;84.30;;;;;;5029117;28;20058;-68
2022/05/26 02:39:19;;;;;;;0.00;0.00;;;13.80;84.10;;;;;;5030592;28;20037;-68
2022/05/26 02:41:45;;;;;;;0.10;0.10;;;13.70;83.80;;;;;;5030759;28;20402;-67
2022/05/26 02:44:11;;;;;;;0.00;0.00;;;13.70;83.70;;;;;;5030202;28;20075;-68
2022/05/26 02:46:54;;;;;;;0.00;0.00;;;13.70;83.90;;;;;;5028497;28;20530;-67
2022/05/26 02:49:44;;;;;;;0.10;0.10;;;13.70;83.80;;;;;;5030166;28;20560;-67
2022/05/26 02:52:25;;;;;;;0.00;0.00;;;13.60;83.80;;;;;;5030732;28;20048;-67
2022/05/26 02:55:15;;;;;;;0.00;0.00;;;13.60;83.90;;;;;;5029704;28;20045;-67
2022/05/26 02:57:59;;;;;;;0.00;0.00;;;13.60;83.60;;;;;;5029993;28;20044;-67
2022/05/26 03:00:35;;;;;;;0.00;0.00;;;13.50;83.80;;;;;;5029645;28;20498;-67
2022/05/26 03:03:25;;;;;;;0.00;0.00;;;13.50;83.90;;;;;;5030401;28;20056;-67
2022/05/26 03:06:04;;;;;;;0.05;0.05;;;13.50;83.80;;;;;;5029664;28;20065;-67
2022/05/26 03:08:33;;;;;;;0.00;0.00;;;13.40;83.70;;;;;;5029748;28;20052;-68
2022/05/26 03:11:09;;;;;;;0.00;0.00;;;13.40;83.70;;;;;;5029609;28;20049;-67
2022/05/26 03:13:36;;;;;;;0.00;0.00;;;13.30;84.00;;;;;;5030378;28;20033;-67
2022/05/26 03:16:03;;;;;;;0.00;0.00;;;13.30;84.00;;;;;;5029998;28;20080;-67
2022/05/26 03:18:30;;;;;;;16.17;1.65;;;13.30;84.10;;;;;;5029996;28;20179;-67
2022/05/26 03:20:59;;;;;;;0.00;0.00;;;13.20;84.20;;;;;;5028979;28;20533;-67
2022/05/26 03:23:25;;;;;;;0.00;0.00;;;13.10;84.10;;;;;;5029682;28;20042;-67
2022/05/26 03:25:50;;;;;;;0.00;0.00;;;13.10;84.20;;;;;;5029497;28;20037;-67
2022/05/26 03:28:16;;;;;;;0.00;0.00;;;13.10;84.30;;;;;;5029817;28;20049;-67
2022/05/26 03:30:41;;;;;;;0.00;0.00;;;13.10;84.10;;;;;;5029384;28;20057;-67
2022/05/26 03:33:07;;;;;;;0.00;0.00;;;13.10;84.20;;;;;;5029860;28;20033;-67
2022/05/26 03:41:01;;;;;;;0.25;0.25;;;13.00;84.20;;;;;;5029243;28;20053;-67
2022/05/26 03:43:33;;;;;;;0.00;0.00;;;13.00;84.10;;;;;;5029635;28;20098;-67
2022/05/26 03:45:59;;;;;;;0.00;0.00;;;13.00;84.00;;;;;;5028922;28;20041;-67
2022/05/26 03:48:26;;;;;;;0.00;0.00;;;13.00;84.20;;;;;;5029594;28;20056;-67
2022/05/26 03:50:52;;;;;;;0.00;0.00;;;13.10;84.20;;;;;;5029063;28;20049;-67
2022/05/26 03:53:17;;;;;;;0.00;0.00;;;13.00;84.00;;;;;;5029480;28;20406;-68
2022/05/26 03:55:43;;;;;;;0.00;0.00;;;13.10;84.10;;;;;;5029095;28;20103;-68
2022/05/26 03:58:08;;;;;;;0.00;0.00;;;13.10;84.00;;;;;;5029078;28;20038;-68
2022/05/26 04:00:35;;;;;;;0.00;0.00;;;13.10;84.00;;;;;;5028674;28;20049;-67
2022/05/26 04:03:01;;;;;;;0.00;0.00;;;13.10;83.90;;;;;;5029257;28;20040;-67
2022/05/26 04:05:27;;;;;;;1.00;1.00;;;13.10;83.90;;;;;;5028969;28;20045;-68
2022/05/26 04:07:52;;;;;;;0.00;0.00;;;13.10;83.80;;;;;;5027925;28;20038;-67
2022/05/26 04:10:19;;;;;;;0.00;0.00;;;13.10;83.60;;;;;;5028821;28;20107;-67
2022/05/26 04:12:46;;;;;;;0.17;0.17;;;13.10;83.40;;;;;;5028857;28;20045;-67
2022/05/26 04:15:14;;;;;;;0.00;0.00;;;13.10;83.20;;;;;;5028909;28;20046;-67
2022/05/26 04:17:40;;;;;;;0.00;0.00;;;13.20;83.20;;;;;;5027767;28;20046;-67
2022/05/26 04:20:09;;;;;;;0.00;0.00;;;13.20;83.30;;;;;;5028567;28;20091;-67
2022/05/26 04:22:35;;;;;;;0.00;0.00;;;13.20;83.10;;;;;;5028725;28;20560;-67
2022/05/26 04:25:01;;;;;;;0.00;0.00;;;13.20;83.10;;;;;;5028833;28;20084;-67
2022/05/26 04:27:31;;;;;;;0.00;0.00;;;13.20;83.00;;;;;;5028556;28;20052;-67
2022/05/26 04:29:57;;;;;;;0.00;0.00;;;13.10;83.00;;;;;;5028245;28;20069;-67
2022/05/26 04:32:23;;;;;;;0.00;0.00;;;13.10;82.90;;;;;;5028971;28;20068;-68
2022/05/26 04:34:51;;;;;;;0.00;0.00;;;13.10;82.90;;;;;;5029044;28;20049;-67
2022/05/26 04:37:17;;;;;;;0.00;0.00;;;13.10;82.60;;;;;;5028937;28;20094;-67
2022/05/26 04:39:43;;;;;;;0.00;0.00;;;13.10;82.50;;;;;;5028740;28;20081;-66
2022/05/26 04:42:09;;;;;;;0.10;0.10;;;13.10;82.50;;;;;;5027458;28;20084;-67
2022/05/26 04:44:41;;;;;;;0.00;0.00;;;13.20;82.50;;;;;;5028665;28;20073;-67
2022/05/26 04:47:07;;;;;;;0.00;0.00;;;13.20;82.40;;;;;;5028469;28;20100;-67
2022/05/26 04:49:32;;;;;;;0.00;0.00;;;13.20;82.30;;;;;;5027889;28;20037;-67
2022/05/26 04:51:58;;;;;;;0.08;0.08;;;13.20;82.40;;;;;;5027814;28;20469;-67
2022/05/26 04:54:25;;;;;;;0.00;0.00;;;13.30;82.60;;;;;;5032162;28;20049;-67
2022/05/26 04:56:55;;;;;;;0.00;0.00;;;13.30;82.50;;;;;;5028248;28;20099;-67
2022/05/26 04:59:21;;;;;;;0.00;0.00;;;13.30;82.40;;;;;;5028647;28;20084;-67
2022/05/26 05:01:46;;;;;;;0.00;0.00;;;13.30;82.30;;;;;;5027867;28;20076;-67
2022/05/26 05:04:12;;;;;;;0.00;0.00;;;13.40;82.50;;;;;;5028248;28;20041;-67
2022/05/26 05:06:37;;;;;;;0.00;0.00;;;13.40;82.20;;;;;;5028121;28;20038;-68
2022/05/26 05:09:03;;;;;;;0.00;0.00;;;13.50;82.30;;;;;;5027857;28;20103;-67
2022/05/26 05:11:29;;;;;;;3.30;2.28;;;13.50;82.30;;;;;;5027786;28;20053;-67
2022/05/26 05:13:55;;;;;;;0.00;0.00;;;13.60;82.30;;;;;;5028024;28;20490;-67
2022/05/26 05:16:42;;;;;;;0.00;0.00;;;13.60;82.40;;;;;;5022075;28;20052;-67
2022/05/26 05:19:09;;;;;;;0.00;0.00;;;13.60;82.50;;;;;;5026291;28;20746;-67
2022/05/26 05:21:40;;;;;;;0.00;0.00;;;13.70;82.50;;;;;;5028087;28;20042;-67
2022/05/26 05:24:08;;;;;;;;;;;13.70;82.30;;;;;;5028697;28;20045;-65
2022/05/26 05:26:37;;;;;;;0.00;0.00;;;13.80;82.10;;;;;;5022991;28;19921;-65
2022/05/26 05:29:09;;;;;;;0.00;0.00;;;13.90;81.80;;;;;;5029590;28;20048;-65
2022/05/26 05:31:41;;;;;;;2.55;0.80;;;14.00;81.70;;;;;;5031583;28;20099;-64
2022/05/26 05:34:13;;;;;;;0.38;0.35;;;14.00;81.70;;;;;;5031741;28;20053;-66
2022/05/26 05:36:39;;;;;;;0.00;0.00;;;14.10;81.60;;;;;;5031707;28;20049;-65
2022/05/26 05:39:05;;;;;;;3.40;0.75;;;14.10;81.10;;;;;;5023219;28;20046;-67
2022/05/26 05:41:33;;;;;;;0.00;0.00;;;14.20;80.50;;;;;;5023368;28;20049;-67
2022/05/26 05:44:00;;;;;;;0.00;0.00;;;14.20;80.40;;;;;;5031332;28;20110;-67
2022/05/26 05:46:33;;;;;;;0.28;0.28;;;14.30;80.10;;;;;;5030884;28;20414;-67
2022/05/26 05:49:04;;;;;;;0.00;0.00;;;14.30;80.20;;;;;;5031101;28;20091;-66
2022/05/26 05:51:32;;;;;;;0.00;0.00;;;14.30;79.60;;;;;;5022992;28;20053;-67
2022/05/26 05:53:58;;;;;;;0.00;0.00;;;14.40;79.80;;;;;;5023749;28;20045;-67
2022/05/26 05:56:24;;;;;;;0.00;0.00;;;14.50;80.40;;;;;;5030522;28;20082;-67
2022/05/26 05:58:51;;;;;;;0.00;0.00;;;14.50;79.60;;;;;;5030914;28;20090;-68
2022/05/26 06:01:17;;;;;;;0.00;0.00;;;14.50;78.80;;;;;;5030312;28;20072;-68
2022/05/26 06:03:43;;;;;;;0.00;0.00;;;14.50;79.40;;;;;;5030842;28;20490;-67
2022/05/26 06:06:09;;;;;;;0.00;0.00;;;14.50;79.60;;;;;;5028766;28;20041;-67
2022/05/26 06:08:35;;;;;;;0.00;0.00;;;14.60;79.60;;;;;;5019751;28;20086;-66
2022/05/26 06:11:01;;;;;;;0.00;0.00;;;14.60;79.10;;;;;;5025532;28;20529;-66
2022/05/26 06:13:26;;;;;;;0.00;0.00;;;14.70;77.90;;;;;;5028363;28;20081;-67
2022/05/26 06:15:53;;;;;;;0.00;0.00;;;14.80;77.60;;;;;;5029260;28;20038;-66
2022/05/26 06:18:19;;;;;;;0.00;0.00;;;14.80;77.70;;;;;;5030021;28;20247;-67
2022/05/26 06:20:45;;;;;;;0.00;0.00;;;14.80;78.30;;;;;;5030515;28;20553;-68
2022/05/26 06:23:11;;;;;;;0.00;0.00;;;14.70;77.50;;;;;;5030155;28;20577;-67
2022/05/26 06:25:37;;;;;;;0.00;0.00;;;14.70;77.20;;;;;;5028824;28;20085;-68
2022/05/26 06:30:47;;;;;;;0.00;0.00;;;14.60;77.30;;;;;;5029869;28;20053;-68
2022/05/26 06:38:43;;;;;;;0.00;0.00;;;14.70;76.50;;;;;;5030738;28;20485;-67
2022/05/26 06:43:56;;;;;;;0.00;0.00;;;14.80;77.40;;;;;;5030731;28;20057;-67
2022/05/26 06:46:22;;;;;;;0.00;0.00;;;14.80;77.10;;;;;;5030318;28;20052;-66
2022/05/26 06:48:48;;;;;;;0.10;0.10;;;14.70;76.40;;;;;;5030524;28;20037;-66
2022/05/26 06:51:14;;;;;;;0.00;0.00;;;14.70;77.00;;;;;;5030464;28;20045;-66
2022/05/26 06:53:39;;;;;;;0.00;0.00;;;14.70;76.70;;;;;;5012654;28;20068;-66
2022/05/26 06:56:06;;;;;;;0.20;0.13;;;14.80;77.10;;;;;;5030579;28;20120;-66
2022/05/26 06:58:32;;;;;;;0.00;0.00;;;14.80;77.00;;;;;;5030060;28;20045;-67
2022/05/26 07:00:58;;;;;;;0.00;0.00;;;14.80;76.70;;;;;;5030307;28;20057;-67
2022/05/26 07:03:24;;;;;;;0.00;0.00;;;14.80;77.20;;;;;;5030081;28;20458;-67
2022/05/26 07:05:52;;;;;;;0.38;0.38;;;14.80;77.00;;;;;;5030396;28;20051;-67
2022/05/26 07:08:19;;;;;;;0.65;0.65;;;14.80;77.00;;;;;;5029993;28;20049;-67
2022/05/26 07:10:46;;;;;;;0.00;0.00;;;14.90;76.10;;;;;;5029708;28;20478;-68
2022/05/26 07:13:12;;;;;;;0.00;0.00;;;14.90;75.80;;;;;;5030261;28;20107;-66
2022/05/26 07:15:38;;;;;;;0.00;0.00;;;14.80;76.20;;;;;;5029989;28;20554;-66
2022/05/26 07:18:05;;;;;;;0.10;0.10;;;14.90;75.70;;;;;;5029955;28;20052;-66
2022/05/26 07:20:33;;;;;;;0.00;0.00;;;14.90;75.60;;;;;;5030177;28;20049;-66
2022/05/26 07:22:59;;;;;;;0.03;0.03;;;14.90;75.80;;;;;;5029632;28;20422;-66
2022/05/26 07:25:25;;;;;;;0.00;0.00;;;14.90;76.10;;;;;;5029791;28;20049;-67
2022/05/26 07:27:50;;;;;;;0.00;0.00;;;14.90;75.40;;;;;;5029991;28;20053;-66
2022/05/26 07:30:16;;;;;;;0.00;0.00;;;15.00;75.10;;;;;;5029240;28;20157;-67
2022/05/26 07:32:41;;;;;;;0.80;0.80;;;15.00;75.00;;;;;;5029167;28;20048;-66
2022/05/26 07:35:07;;;;;;;0.10;0.10;;;15.10;74.20;;;;;;5029541;28;20041;-66
2022/05/26 07:43:05;;;;;;;0.00;0.00;;;15.40;73.80;;;;;;5028206;28;20857;-64
2022/05/26 07:45:30;;;;;;;0.05;0.05;;;15.50;73.70;;;;;;5028373;28;20061;-65
2022/05/26 07:47:56;;;;;;;0.00;0.00;;;15.40;72.70;;;;;;5029064;28;20041;-64
2022/05/26 07:50:22;;;;;;;0.05;0.05;;;15.40;71.80;;;;;;5027860;28;20106;-63
2022/05/26 07:52:50;;;;;;;0.00;0.00;;;15.50;72.90;;;;;;5027654;28;20038;-65
2022/05/26 07:55:18;;;;;;;0.00;0.00;;;15.50;73.80;;;;;;5028231;28;20419;-65
2022/05/26 07:57:44;;;;;;;0.35;0.35;;;15.50;72.30;;;;;;5027800;28;21042;-65
2022/05/26 08:00:11;;;;;;;0.00;0.00;;;15.50;72.50;;;;;;5028463;28;20041;-64
2022/05/26 08:02:36;;;;;;;1.02;1.02;;;15.60;71.90;;;;;;5028574;28;20178;-64
2022/05/26 08:05:03;;;;;;;0.00;0.00;;;15.60;72.30;;;;;;5028378;28;20128;-64
2022/05/26 08:07:29;;;;;;;0.57;0.52;;;15.60;72.40;;;;;;5027964;28;20454;-66
2022/05/26 08:09:54;;;;;;;0.00;0.00;;;15.70;71.70;;;;;;5027746;28;20092;-65
2022/05/26 08:12:21;;;;;;;0.00;0.00;;;15.80;72.20;;;;;;5028220;28;20057;-64
2022/05/26 08:14:47;;;;;;;0.00;0.00;;;15.90;69.80;;;;;;5027869;28;20124;-64
2022/05/26 08:17:18;;;;;;;0.00;0.00;;;15.80;68.10;;;;;;5010213;28;20045;-65
2022/05/26 08:19:43;;;;;;;0.00;0.00;;;15.70;68.60;;;;;;5028084;28;20042;-64
2022/05/26 08:22:09;;;;;;;0.00;0.00;;;15.80;68.20;;;;;;5028145;28;20100;-64
2022/05/26 08:24:35;;;;;;;0.00;0.00;;;15.90;67.40;;;;;;5027343;28;20037;-64
2022/05/26 08:27:00;;;;;;;0.00;0.00;;;16.00;68.10;;;;;;5034944;28;20033;-65
2022/05/26 08:29:26;;;;;;;0.00;0.00;;;16.10;68.80;;;;;;5027980;28;20038;-65
2022/05/26 08:31:52;;;;;;;0.00;0.00;;;16.10;68.80;;;;;;5038100;28;20837;-64
2022/05/26 08:34:18;;;;;;;0.00;0.00;;;16.10;68.20;;;;;;5045785;28;20584;-65
2022/05/26 08:36:44;;;;;;;0.55;0.55;;;16.10;67.50;;;;;;5028765;28;20034;-64
2022/05/26 08:39:09;;;;;;;0.00;0.00;;;16.10;67.60;;;;;;5027772;28;20056;-64
2022/05/26 08:41:42;;;;;;;0.00;0.00;;;16.20;66.40;;;;;;5023400;28;20067;-63
2022/05/26 08:44:22;;;;;;;0.20;0.20;;;16.10;64.30;;;;;;5018919;28;20531;-65
2022/05/26 08:46:54;;;;;;;0.00;0.00;;;16.10;64.40;;;;;;5009861;28;20048;-65
2022/05/26 08:49:30;;;;;;;0.00;0.00;;;16.10;66.30;;;;;;5010665;28;20038;-64
2022/05/26 08:52:03;;;;;;;0.00;0.00;;;16.10;67.00;;;;;;5009485;28;20054;-65
2022/05/26 08:54:53;;;;;;;0.00;0.00;;;16.00;67.90;;;;;;5016123;28;20402;-65
2022/05/26 08:57:24;;;;;;;3.38;1.75;;;16.00;65.40;;;;;;5029079;28;20050;-65
2022/05/26 08:59:50;;;;;;;0.00;0.00;;;15.90;65.50;;;;;;5027743;28;20041;-65
2022/05/26 09:02:31;;;;;;;0.00;0.00;;;15.90;66.20;;;;;;5026755;28;20095;-65
2022/05/26 09:05:01;;;;;;;0.00;0.00;;;16.00;66.10;;;;;;5033041;28;20049;-65
2022/05/26 09:13:27;;;;;;;0.00;0.00;;;16.30;66.00;;;;;;5024078;28;20053;-65
2022/05/26 09:15:53;;;;;;;0.43;0.38;;;16.30;65.60;;;;;;5014678;28;20049;-64
2022/05/26 09:18:21;;;;;;;0.00;0.00;;;16.40;66.40;;;;;;5018821;28;20041;-64
2022/05/26 09:20:49;;;;;;;0.00;0.00;;;16.50;67.80;;;;;;5012315;28;20503;-64
2022/05/26 09:23:28;;;;;;;0.00;0.00;;;16.60;66.60;;;;;;5017778;28;20033;-64
2022/05/26 09:26:06;;;;;;;0.00;0.00;;;16.60;66.80;;;;;;5022377;28;20070;-64
2022/05/26 09:28:46;;;;;;;0.00;0.00;;;16.70;67.50;;;;;;5022033;28;20049;-64
2022/05/26 09:31:35;;;;;;;0.10;0.10;;;16.80;67.10;;;;;;5026065;28;20053;-67
2022/05/26 09:34:04;;;;;;;0.00;0.00;;;16.90;68.00;;;;;;5022639;28;20410;-65
2022/05/26 09:36:52;;;;;;;0.40;0.40;;;17.10;68.20;;;;;;5028806;28;20510;-66
2022/05/26 09:39:21;;;;;;;0.00;0.00;;;17.10;68.00;;;;;;5011489;28;20080;-65
2022/05/26 09:41:57;;;;;;;0.00;0.00;;;17.10;67.80;;;;;;5031126;28;20095;-65
2022/05/26 09:44:53;;;;;;;0.00;0.00;;;17.10;65.70;;;;;;5030842;28;20124;-65
2022/05/26 09:47:28;;;;;;;0.00;0.00;;;17.10;67.60;;;;;;5030809;28;20530;-65
2022/05/26 09:49:57;;;;;;;0.00;0.00;;;17.20;66.60;;;;;;5031072;28;20766;-65
2022/05/26 09:52:37;;;;;;;0.00;0.00;;;17.30;67.20;;;;;;5031404;28;20045;-65
2022/05/26 09:55:24;;;;;;;0.00;0.00;;;17.40;67.60;;;;;;5029637;28;20033;-65
2022/05/26 09:58:07;;;;;;;0.00;0.00;;;17.50;67.10;;;;;;5029988;28;20434;-65
2022/05/26 10:00:42;;;;;;;0.00;0.00;;;17.50;65.60;;;;;;5024319;28;20052;-66
2022/05/26 10:03:24;;;;;;;0.00;0.00;;;17.30;65.90;;;;;;5031256;28;20053;-66
2022/05/26 10:06:16;;;;;;;0.00;0.00;;;17.40;66.80;;;;;;5030867;28;20107;-65
2022/05/26 10:08:50;;;;;;;;;;;17.30;67.60;;;;;;5030457;28;20069;-65
2022/05/26 10:11:34;;;;;;;0.32;0.32;;;17.30;67.80;;;;;;5013432;28;19928;-66
2022/05/26 10:14:03;;;;;;;0.00;0.00;;;17.30;68.10;;;;;;5029677;28;20845;-66
2022/05/26 10:16:35;;;;;;;0.00;0.00;;;17.30;66.80;;;;;;5030929;28;20049;-65
2022/05/26 10:19:19;;;;;;;0.00;0.00;;;17.20;66.90;;;;;;5029471;28;20038;-65
2022/05/26 10:21:53;;;;;;;0.00;0.00;;;17.30;68.00;;;;;;5019052;28;20117;-64
2022/05/26 10:24:24;;;;;;;0.00;0.00;;;17.30;70.00;;;;;;5029876;28;20041;-64
2022/05/26 10:26:53;;;;;;;0.00;0.00;;;17.30;69.70;;;;;;5029960;28;20084;-64
2022/05/26 10:29:43;;;;;;;0.28;0.28;;;17.30;70.10;;;;;;5029528;28;20528;-65
2022/05/26 10:32:18;;;;;;;0.00;0.00;;;17.40;69.10;;;;;;5030293;28;20056;-65
2022/05/26 10:35:03;;;;;;;0.00;0.00;;;17.40;70.50;;;;;;5029952;28;20083;-66
2022/05/26 10:37:45;;;;;;;0.30;0.30;;;17.30;68.30;;;;;;5030206;28;20041;-65
2022/05/26 10:40:37;;;;;;;0.00;0.00;;;17.30;68.30;;;;;;5031439;28;20056;-65
2022/05/26 10:43:20;;;;;;;0.10;0.10;;;17.30;69.60;;;;;;5029418;28;20053;-64
2022/05/26 10:45:48;;;;;;;0.10;0.10;;;17.30;69.70;;;;;;5021392;28;20077;-64
2022/05/26 10:48:35;;;;;;;0.00;0.00;;;17.20;70.60;;;;;;5024583;28;20065;-66
2022/05/26 10:51:20;;;;;;;0.00;0.00;;;17.20;70.70;;;;;;5029531;28;20049;-64
2022/05/26 10:53:52;;;;;;;0.00;0.00;;;17.20;71.70;;;;;;5029598;28;20520;-64
2022/05/26 10:56:39;;;;;;;0.00;0.00;;;17.10;68.20;;;;;;5028393;28;20565;-65
2022/05/26 10:59:29;;;;;;;0.22;0.22;;;17.10;69.00;;;;;;5029730;28;20423;-65
2022/05/26 11:02:10;;;;;;;0.00;0.00;;;17.10;69.80;;;;;;5009734;28;20042;-65
2022/05/26 11:04:56;;;;;;;0.00;0.00;;;17.10;69.40;;;;;;5014922;28;20540;-65
2022/05/26 11:07:46;;;;;;;0.00;0.00;;;17.20;71.60;;;;;;5029960;28;20495;-65
2022/05/26 11:10:27;;;;;;;0.00;0.00;;;17.30;71.70;;;;;;5029962;28;20052;-65
2022/05/26 11:13:17;;;;;;;0.00;0.00;;;17.30;69.80;;;;;;5029795;28;20762;-65
2022/05/26 11:18:46;;;;;;;0.00;0.00;;;17.60;68.60;;;;;;5029796;28;20049;-65
2022/05/26 11:21:17;;;;;;;0.00;0.00;;;17.60;69.80;;;;;;5029803;28;20418;-64
2022/05/26 11:23:42;;;;;;;0.00;0.00;;;17.60;70.90;;;;;;5028238;28;20091;-65
2022/05/26 11:26:44;;;;;;;0.00;0.00;;;17.50;70.10;;;;;;5029685;28;20061;-65
2022/05/26 11:29:18;;;;;;;0.10;0.10;;;17.50;68.80;;;;;;5030176;28;20060;-65
2022/05/26 11:37:40;;;;;;;0.00;0.00;;;17.70;67.40;;;;;;5029449;28;20140;-65
2022/05/26 11:40:09;;;;;;;0.08;0.08;;;17.70;67.60;;;;;;5029026;28;20126;-65
2022/05/26 11:42:39;;;;;;;0.00;0.00;;;17.60;68.60;;;;;;5029162;28;20037;-65
2022/05/26 11:45:13;;;;;;;0.00;0.00;;;17.50;70.30;;;;;;5029436;28;20045;-64
2022/05/26 11:48:16;;;;;;;0.00;0.00;;;17.60;70.50;;;;;;5027677;28;20124;-66
2022/05/26 11:51:25;;;;;;;0.00;0.00;;;17.60;70.70;;;;;;5022893;28;20045;-64
2022/05/26 11:53:51;;;;;;;0.00;0.00;;;17.60;68.30;;;;;;5031882;28;20064;-65
2022/05/26 11:56:30;;;;;;;0.00;0.00;;;17.60;67.00;;;;;;5029252;28;20843;-66
2022/05/26 11:59:32;;;;;;;0.13;0.13;;;17.70;67.30;;;;;;5027590;28;20049;-65
2022/05/26 12:02:00;;;;;;;0.10;0.10;;;17.70;67.50;;;;;;5027999;28;20084;-66
2022/05/26 12:04:32;;;;;;;0.00;0.00;;;17.70;68.60;;;;;;5028745;28;20052;-68
2022/05/26 12:07:25;;;;;;;0.00;0.00;;;17.70;69.20;;;;;;5028839;28;20041;-66
2022/05/26 12:09:58;;;;;;;0.00;0.00;;;17.70;70.30;;;;;;5027370;28;20057;-68
2022/05/26 12:12:24;;;;;;;0.00;0.00;;;17.50;69.80;;;;;;5028416;28;20049;-69
2022/05/26 12:14:52;;;;;;;0.00;0.00;;;17.50;69.10;;;;;;5028762;28;20103;-68
2022/05/26 12:17:30;;;;;;;0.00;0.00;;;17.40;69.40;;;;;;5028814;28;20476;-68
2022/05/26 12:20:16;;;;;;;0.00;0.00;;;17.50;69.30;;;;;;5028245;28;20049;-67
2022/05/26 12:22:50;;;;;;;0.00;0.00;;;17.60;68.20;;;;;;5019981;28;20510;-66
2022/05/26 12:25:35;;;;;;;0.00;0.00;;;17.60;67.80;;;;;;5029021;28;20045;-67
2022/05/26 12:28:10;;;;;;;0.00;0.00;;;17.60;69.00;;;;;;5027769;28;20049;-67
2022/05/26 12:30:44;;;;;;;0.00;0.00;;;17.60;67.60;;;;;;5005065;28;20057;-67
2022/05/26 12:33:19;;;;;;;0.00;0.00;;;17.60;68.30;;;;;;5028423;28;20402;-67
2022/05/26 12:36:21;;;;;;;0.13;0.13;;;17.60;68.30;;;;;;5020137;28;20061;-67
2022/05/26 12:39:06;;;;;;;1.65;1.35;;;17.70;69.00;;;;;;5012070;28;20045;-67
2022/05/26 12:41:50;;;;;;;0.00;0.00;;;17.60;67.80;;;;;;5043346;28;20107;-67
2022/05/26 12:44:53;;;;;;;0.30;0.30;;;17.70;68.50;;;;;;5032679;28;20049;-66
2022/05/26 12:47:53;;;;;;;0.00;0.00;;;17.60;68.00;;;;;;5031364;28;20077;-66
2022/05/26 12:50:21;;;;;;;0.10;0.10;;;17.60;68.10;;;;;;5030817;28;20049;-66
2022/05/26 12:53:12;;;;;;;0.00;0.00;;;17.50;67.40;;;;;;5032308;28;20038;-66
2022/05/26 12:55:41;;;;;;;0.00;0.00;;;17.50;67.40;;;;;;5014576;28;20042;-67
2022/05/26 12:58:13;;;;;;;0.10;0.10;;;17.50;68.10;;;;;;5015310;28;20060;-65
2022/05/26 13:00:38;;;;;;;;;;;17.40;67.70;;;;;;5030394;28;20038;-65
2022/05/26 13:03:07;;;;;;;0.00;0.00;;;17.30;67.00;;;;;;5019382;28;19933;-66
2022/05/26 13:05:38;;;;;;;0.00;0.00;;;17.30;67.40;;;;;;5030697;28;20037;-66
2022/05/26 13:08:05;;;;;;;0.00;0.00;;;17.40;67.50;;;;;;5020246;28;20414;-66
2022/05/26 13:10:37;;;;;;;0.10;0.10;;;17.30;66.40;;;;;;5032095;28;20099;-66
2022/05/26 13:13:21;;;;;;;0.00;0.00;;;17.30;66.40;;;;;;5031171;28;20057;-65
2022/05/26 13:15:48;;;;;;;0.00;0.00;;;17.30;66.70;;;;;;5032245;28;20378;-67
2022/05/26 13:18:23;;;;;;;0.00;0.00;;;17.20;67.70;;;;;;5031873;28;20565;-65
2022/05/26 13:20:49;;;;;;;0.10;0.10;;;17.30;67.50;;;;;;5031469;28;20077;-66
2022/05/26 13:23:31;;;;;;;0.00;0.00;;;17.30;68.00;;;;;;5030496;28;20096;-65
2022/05/26 13:25:58;;;;;;;0.00;0.00;;;17.20;67.90;;;;;;5020288;28;20045;-64
2022/05/26 13:28:33;;;;;;;0.00;0.00;;;17.20;67.90;;;;;;5031503;28;20048;-66
2022/05/26 13:33:49;;;;;;;0.65;0.65;;;17.30;69.30;;;;;;5030598;28;20041;-65
2022/05/26 13:36:18;;;;;;;0.00;0.00;;;17.40;68.20;;;;;;5025547;28;20067;-65
2022/05/26 13:38:49;;;;;;;0.00;0.00;;;17.50;68.00;;;;;;5029705;28;20056;-65
2022/05/26 13:41:20;;;;;;;0.00;0.00;;;17.50;68.20;;;;;;5020356;28;20083;-64
2022/05/26 13:43:47;;;;;;;;;;;17.50;68.30;;;;;;5024038;28;20041;-64
2022/05/26 13:46:25;;;;;;;0.00;0.00;;;17.30;68.90;;;;;;5020351;28;19928;-64
2022/05/26 13:48:58;;;;;;;0.00;0.00;;;17.30;68.30;;;;;;5027128;28;20099;-64
2022/05/26 13:51:34;;;;;;;0.00;0.00;;;17.40;68.60;;;;;;5025678;28;20041;-65
2022/05/26 13:54:29;;;;;;;0.65;0.65;;;17.30;68.40;;;;;;5029139;28;20514;-64
2022/05/26 13:56:56;;;;;;;1.35;1.25;;;17.50;68.00;;;;;;5030541;28;20041;-64
2022/05/26 13:59:23;;;;;;;0.10;0.10;;;17.50;68.40;;;;;;5030555;28;20042;-65